createdAt,value
2023-01-11T00:07:50.095Z,4.72
2023-01-11T00:17:50.290Z,4.91
2023-01-11T00:27:50.574Z,5.09
2023-01-11T00:37:50.576Z,5.20
2023-01-11T00:47:50.826Z,5.30
2023-01-11T00:57:51.180Z,5.30
2023-01-11T01:07:51.203Z,5.31
2023-01-11T01:17:51.409Z,5.25
2023-01-11T01:27:51.673Z,5.12
2023-01-11T01:37:51.881Z,5.21
2023-01-11T01:47:53.191Z,5.40
2023-01-11T01:57:52.190Z,5.38
2023-01-11T02:07:52.431Z,5.35
2023-01-11T02:17:52.621Z,5.36
2023-01-11T02:27:52.890Z,5.28
2023-01-11T02:37:53.100Z,5.22
2023-01-11T02:47:53.355Z,5.27
2023-01-11T02:57:53.554Z,5.24
2023-01-11T03:07:53.832Z,5.21
2023-01-11T03:17:54.029Z,5.21
2023-01-11T03:27:54.309Z,5.13
2023-01-11T03:37:54.314Z,5.07
2023-01-11T03:47:57.637Z,5.04
2023-01-11T03:57:54.661Z,5.12
2023-01-11T04:07:54.956Z,5.12
2023-01-11T04:17:54.947Z,5.22
2023-01-11T04:27:55.205Z,5.00
2023-01-11T04:37:55.419Z,4.80
2023-01-11T04:47:55.691Z,4.91
2023-01-11T04:57:55.692Z,4.96
2023-01-11T05:07:55.978Z,5.12
2023-01-11T05:17:56.018Z,5.09
2023-01-11T05:27:56.351Z,5.10
2023-01-11T05:37:56.383Z,4.84
2023-01-11T05:47:56.722Z,4.60
2023-01-11T05:57:56.743Z,4.51
2023-01-11T06:07:57.094Z,4.62
2023-01-11T06:17:57.160Z,4.32
2023-01-11T06:27:57.463Z,4.18
2023-01-11T06:37:57.494Z,4.22
2023-01-11T06:47:57.836Z,4.41
2023-01-11T06:57:57.875Z,4.55
2023-01-11T07:07:58.208Z,4.24
2023-01-11T07:17:58.271Z,4.54
2023-01-11T07:27:58.568Z,4.62
2023-01-11T07:37:58.589Z,4.52
2023-01-11T07:47:58.840Z,4.60
2023-01-11T07:57:59.073Z,4.63
2023-01-11T08:07:59.409Z,4.73
2023-01-11T08:17:59.433Z,4.96
2023-01-11T08:27:59.682Z,5.04
2023-01-11T08:37:59.909Z,5.20
2023-01-11T08:48:00.180Z,5.64
2023-01-11T08:58:00.216Z,5.76
2023-01-11T09:08:00.534Z,5.89
2023-01-11T09:18:00.558Z,6.18
2023-01-11T09:28:00.902Z,6.38
2023-01-11T09:38:00.943Z,6.43
2023-01-11T09:48:01.285Z,6.52
2023-01-11T09:58:01.341Z,6.61
2023-01-11T10:18:28.983Z,6.98
2023-01-11T10:28:02.876Z,7.02
2023-01-11T10:38:02.205Z,7.13
2023-01-11T10:48:02.225Z,7.32
2023-01-11T10:58:03.901Z,7.50
2023-01-11T11:08:02.581Z,7.52
2023-01-11T11:18:03.864Z,7.49
2023-01-11T11:28:02.887Z,7.46
2023-01-11T11:38:03.213Z,7.40
2023-01-11T11:48:03.229Z,7.42
2023-01-11T11:58:03.571Z,7.53
2023-01-11T12:08:03.609Z,7.45
2023-01-11T12:18:03.838Z,7.35
2023-01-11T12:28:04.082Z,7.32
2023-01-11T12:38:04.426Z,7.42
2023-01-11T12:48:04.463Z,7.57
2023-01-11T12:58:06.278Z,7.69
2023-01-11T13:08:04.937Z,7.80
2023-01-11T13:18:05.257Z,7.82
2023-01-11T13:28:08.748Z,7.85
2023-01-11T13:38:06.551Z,7.80
2023-01-11T13:48:05.807Z,7.50
2023-01-11T13:58:05.865Z,7.34
2023-01-11T14:08:06.177Z,6.84
2023-01-11T14:18:06.205Z,6.81
2023-01-11T14:28:06.543Z,6.74
2023-01-11T14:38:06.585Z,6.55
2023-01-11T14:48:06.923Z,6.74
2023-01-11T14:58:06.947Z,6.43
2023-01-11T15:08:07.194Z,6.28
2023-01-11T15:18:07.453Z,6.28
2023-01-11T15:28:07.763Z,6.84
2023-01-11T15:38:07.836Z,6.28
2023-01-11T15:48:08.148Z,6.31
2023-01-11T15:58:08.179Z,6.46
2023-01-11T16:08:08.508Z,6.77
2023-01-11T16:18:08.557Z,6.67
2023-01-11T16:28:08.893Z,6.36
2023-01-11T16:38:08.975Z,6.51
2023-01-11T16:48:09.044Z,6.69
2023-01-11T16:58:09.247Z,6.58
2023-01-11T17:08:09.369Z,6.55
2023-01-11T17:18:09.405Z,6.59
2023-01-11T17:28:10.704Z,6.46
2023-01-11T17:38:09.757Z,6.59
2023-01-11T17:48:10.001Z,6.58
2023-01-11T17:58:10.264Z,6.37
2023-01-11T18:08:10.543Z,6.64
2023-01-11T18:18:10.652Z,6.59
2023-01-11T18:28:10.805Z,6.31
2023-01-11T18:38:10.887Z,6.18
2023-01-11T18:48:10.969Z,6.40
2023-01-11T18:58:11.208Z,6.55
2023-01-11T19:08:11.555Z,6.59
2023-01-11T19:18:11.615Z,6.95
2023-01-11T19:28:12.227Z,7.37
2023-01-11T19:38:11.971Z,6.09
2023-01-11T19:48:13.415Z,5.89
2023-01-11T19:58:12.512Z,6.41
2023-01-11T20:08:12.649Z,7.67
2023-01-11T20:18:12.897Z,7.79
2023-01-11T20:28:13.146Z,7.37
2023-01-11T20:38:13.087Z,7.12
2023-01-11T20:48:13.509Z,7.32
2023-01-11T20:58:13.644Z,6.38
2023-01-11T21:08:13.855Z,5.91
2023-01-11T21:18:13.894Z,6.04
2023-01-11T21:28:14.341Z,6.25
2023-01-11T21:38:14.395Z,6.18
2023-01-11T21:48:14.707Z,6.37
2023-01-11T21:58:14.730Z,6.97
2023-01-11T22:08:16.167Z,7.35
2023-01-11T22:18:15.334Z,7.34
2023-01-11T22:28:15.553Z,7.28
2023-01-11T22:38:15.587Z,6.77
2023-01-11T22:48:15.948Z,6.37
2023-01-11T22:58:15.959Z,6.46
2023-01-11T23:08:16.300Z,6.22
2023-01-11T23:18:16.338Z,6.17
2023-01-11T23:28:16.873Z,6.31
2023-01-11T23:38:16.711Z,6.40
2023-01-11T23:48:17.546Z,6.43
2023-01-11T23:58:17.169Z,6.62
